Time;durP1;ratioP1;P1;durP2;ratioP2;P2;SDS_P1;SDS_P2;PMS_P1;PMS_P2;Temp;Humidity;BMP_temperature;BMP_pressure;BME280_temperature;BME280_humidity;BME280_pressure;Samples;Min_cycle;Max_cycle;Signal;HPM_P1;HPM_P2
2022/03/31 00:02:11;;;;;;;12.80;6.90;;;5.20;75.10;;;;;;5091163;28;20199;-47
2022/03/31 00:04:38;;;;;;;11.13;6.22;;;5.20;75.00;;;;;;5073036;28;20221;-47
2022/03/31 00:07:05;;;;;;;7.72;5.55;;;5.20;75.00;;;;;;5091331;28;20202;-47
2022/03/31 00:09:32;;;;;;;9.18;6.13;;;5.20;74.80;;;;;;5090958;28;20248;-47
2022/03/31 00:11:59;;;;;;;8.02;5.45;;;5.20;74.60;;;;;;5091578;28;20198;-47
2022/03/31 00:14:26;;;;;;;7.40;5.05;;;5.20;74.40;;;;;;5091391;28;20214;-47
2022/03/31 00:16:53;;;;;;;14.52;5.68;;;5.20;74.30;;;;;;5091420;28;20246;-47
2022/03/31 00:19:21;;;;;;;8.93;6.35;;;5.10;74.10;;;;;;5090449;28;20216;-47
2022/03/31 00:21:48;;;;;;;9.63;5.60;;;5.10;74.10;;;;;;5091613;28;20198;-47
2022/03/31 00:24:15;;;;;;;7.40;5.75;;;5.10;74.10;;;;;;5091354;28;20524;-46
2022/03/31 00:26:41;;;;;;;8.73;5.20;;;5.10;74.10;;;;;;5091263;28;20198;-46
2022/03/31 00:29:08;;;;;;;7.90;5.90;;;5.00;74.10;;;;;;5072588;28;20199;-46
2022/03/31 00:31:35;;;;;;;7.75;5.68;;;5.00;74.20;;;;;;5091160;28;20218;-46
2022/03/31 00:34:02;;;;;;;8.02;5.97;;;4.90;74.00;;;;;;5091077;28;20199;-47
2022/03/31 00:36:30;;;;;;;6.78;5.47;;;4.90;74.10;;;;;;5091126;28;20295;-47
2022/03/31 00:41:40;;;;;;;12.07;5.97;;;4.70;73.90;;;;;;5072880;28;20202;-47
2022/03/31 00:44:08;;;;;;;5.88;5.00;;;4.70;73.90;;;;;;5090931;28;20572;-47
2022/03/31 00:46:35;;;;;;;6.10;5.22;;;4.70;73.90;;;;;;5091027;28;20209;-47
2022/03/31 00:49:02;;;;;;;8.68;5.80;;;4.70;73.70;;;;;;5091569;28;20209;-46
2022/03/31 00:51:31;;;;;;;7.53;5.40;;;4.70;73.80;;;;;;5092065;28;20253;-47
2022/03/31 00:53:58;;;;;;;6.47;5.75;;;4.70;73.70;;;;;;5074249;28;20279;-45
2022/03/31 00:56:25;;;;;;;9.93;5.38;;;4.60;73.60;;;;;;5092687;28;20252;-47
2022/03/31 00:58:53;;;;;;;9.00;5.40;;;4.60;73.80;;;;;;5091319;28;20194;-47
2022/03/31 01:01:21;;;;;;;8.70;5.22;;;4.60;73.70;;;;;;5092483;28;20222;-46
2022/03/31 01:03:48;;;;;;;7.47;5.18;;;4.60;73.70;;;;;;5092497;28;20206;-45
2022/03/31 01:06:14;;;;;;;9.15;5.70;;;4.50;73.60;;;;;;5095446;28;20558;-46
2022/03/31 01:08:42;;;;;;;10.65;5.45;;;4.50;73.50;;;;;;5095777;28;20569;-47
2022/03/31 01:11:09;;;;;;;7.40;5.10;;;4.50;73.70;;;;;;5095500;28;20703;-47
2022/03/31 01:13:36;;;;;;;6.50;5.78;;;4.40;73.90;;;;;;5095739;28;20712;-47
2022/03/31 01:16:02;;;;;;;8.77;6.28;;;4.40;74.10;;;;;;5095393;28;20291;-46
2022/03/31 01:18:29;;;;;;;8.00;5.25;;;4.30;74.00;;;;;;5095515;28;20205;-47
2022/03/31 01:20:55;;;;;;;9.10;4.97;;;4.30;74.10;;;;;;5095876;28;20228;-48
2022/03/31 01:23:24;;;;;;;9.05;5.57;;;4.20;74.10;;;;;;5094888;28;20568;-48
2022/03/31 01:25:51;;;;;;;7.03;5.13;;;4.20;74.20;;;;;;5094831;28;20193;-47
2022/03/31 01:28:18;;;;;;;8.10;5.45;;;4.20;74.30;;;;;;5094880;28;20202;-48
2022/03/31 01:30:45;;;;;;;7.55;5.65;;;4.20;74.30;;;;;;5094204;28;20226;-47
2022/03/31 01:36:59;;;;;;;7.35;4.95;;;4.10;74.60;;;;;;5094839;28;20214;-47
2022/03/31 01:39:27;;;;;;;8.68;5.43;;;4.10;74.70;;;;;;5094403;28;20195;-47
2022/03/31 01:41:54;;;;;;;9.07;5.25;;;4.00;74.70;;;;;;5095537;28;20729;-47
2022/03/31 01:44:21;;;;;;;10.63;4.70;;;4.00;74.70;;;;;;5095115;28;20540;-46
2022/03/31 01:46:48;;;;;;;6.60;4.85;;;4.00;74.80;;;;;;5094800;28;20281;-45
2022/03/31 01:49:15;;;;;;;7.38;5.30;;;4.00;75.00;;;;;;5094242;28;20198;-45
2022/03/31 01:51:42;;;;;;;9.48;5.00;;;3.80;74.70;;;;;;5076690;28;20313;-46
2022/03/31 01:54:08;;;;;;;7.40;5.93;;;3.90;75.10;;;;;;5094623;28;20207;-48
2022/03/31 01:56:41;;;;;;;10.27;5.55;;;3.90;75.20;;;;;;5094261;28;20589;-47
2022/03/31 01:59:08;;;;;;;10.30;5.20;;;3.90;75.00;;;;;;5094645;28;20293;-47
2022/03/31 02:01:34;;;;;;;7.35;5.05;;;3.90;75.20;;;;;;5094034;28;20562;-46
2022/03/31 02:04:01;;;;;;;6.32;4.95;;;3.80;75.10;;;;;;5094723;28;20217;-46
2022/03/31 02:06:28;;;;;;;11.50;6.18;;;3.90;75.20;;;;;;5093909;28;20565;-46
2022/03/31 02:08:56;;;;;;;5.10;4.55;;;3.80;75.30;;;;;;5093439;28;20219;-47
2022/03/31 02:11:23;;;;;;;7.55;5.10;;;3.80;75.20;;;;;;5093600;28;20305;-47
2022/03/31 02:13:53;;;;;;;7.15;4.75;;;3.70;75.30;;;;;;5093708;28;20217;-47
2022/03/31 02:16:19;;;;;;;9.20;4.93;;;3.70;75.40;;;;;;5093313;28;20682;-48
2022/03/31 02:18:46;;;;;;;8.55;4.85;;;3.60;75.40;;;;;;5093307;28;20425;-48
2022/03/31 02:21:13;;;;;;;8.45;4.95;;;3.60;75.40;;;;;;5093475;28;20641;-47
2022/03/31 02:23:39;;;;;;;9.68;4.35;;;3.60;75.60;;;;;;5094053;28;20344;-46
2022/03/31 02:26:06;;;;;;;7.70;4.40;;;3.60;75.70;;;;;;5094114;28;20526;-46
2022/03/31 02:28:32;;;;;;;6.53;5.22;;;3.50;75.70;;;;;;5093323;28;20195;-47
2022/03/31 02:31:00;;;;;;;8.65;4.30;;;3.40;75.80;;;;;;5093715;28;20211;-47
2022/03/31 02:33:27;;;;;;;6.35;4.95;;;3.40;75.90;;;;;;5094399;28;20191;-47
2022/03/31 02:35:54;;;;;;;7.05;4.80;;;3.40;75.90;;;;;;5093943;28;20245;-46
2022/03/31 02:38:21;;;;;;;10.32;6.57;;;3.30;75.80;;;;;;5093409;28;20206;-54
2022/03/31 02:40:48;;;;;;;6.93;4.70;;;3.30;75.90;;;;;;5074956;28;20222;-46
2022/03/31 02:43:16;;;;;;;7.82;4.63;;;3.30;75.90;;;;;;5093124;28;20222;-46
2022/03/31 02:45:42;;;;;;;8.27;4.00;;;3.30;75.90;;;;;;5093491;28;20635;-47
2022/03/31 02:48:10;;;;;;;7.22;4.97;;;3.00;75.80;;;;;;5093330;28;20198;-47
2022/03/31 02:50:37;;;;;;;7.47;5.22;;;3.20;76.90;;;;;;5092778;28;20222;-46
2022/03/31 02:55:48;;;;;;;7.25;4.63;;;3.20;76.30;;;;;;5092931;28;20229;-47
2022/03/31 02:58:15;;;;;;;9.25;4.65;;;3.20;76.50;;;;;;5093073;28;20568;-46
2022/03/31 03:00:42;;;;;;;5.63;4.32;;;3.10;76.60;;;;;;5093297;28;20211;-46
2022/03/31 03:03:11;;;;;;;7.43;5.10;;;3.00;77.00;;;;;;5094791;28;20226;-47
2022/03/31 03:05:41;;;;;;;8.23;4.97;;;3.00;77.10;;;;;;5093929;28;20713;-46
2022/03/31 03:08:08;;;;;;;6.75;4.28;;;3.00;77.10;;;;;;5093529;28;20694;-47
2022/03/31 03:10:35;;;;;;;6.60;4.50;;;3.00;77.20;;;;;;5092286;28;20660;-47
2022/03/31 03:13:01;;;;;;;7.78;4.80;;;3.00;77.20;;;;;;5092836;28;20198;-47
2022/03/31 03:15:28;;;;;;;6.63;5.15;;;2.70;76.90;;;;;;5092639;28;20211;-47
2022/03/31 03:17:55;;;;;;;6.70;4.43;;;2.90;77.00;;;;;;5092407;28;20545;-47
2022/03/31 03:20:24;;;;;;;7.20;4.63;;;2.90;77.00;;;;;;5092481;28;20643;-47
2022/03/31 03:22:53;;;;;;;14.50;5.18;;;2.90;77.00;;;;;;5092176;28;20213;-47
2022/03/31 03:25:22;;;;;;;6.93;5.07;;;2.90;76.80;;;;;;5092685;28;20195;-47
2022/03/31 03:27:50;;;;;;;9.30;5.53;;;2.90;76.80;;;;;;5092096;28;20202;-46
2022/03/31 03:30:18;;;;;;;7.05;4.75;;;2.80;76.80;;;;;;5091743;28;20219;-46
2022/03/31 03:32:45;;;;;;;7.22;4.70;;;2.80;76.70;;;;;;5092379;28;20203;-47
2022/03/31 03:35:13;;;;;;;7.38;4.85;;;2.80;76.70;;;;;;5092072;28;20198;-46
2022/03/31 03:37:43;;;;;;;7.05;4.70;;;2.70;76.60;;;;;;5092156;28;20227;-46
2022/03/31 03:40:12;;;;;;;9.02;4.53;;;2.70;76.50;;;;;;5091295;28;20225;-47
2022/03/31 03:42:39;;;;;;;6.28;3.95;;;2.60;76.40;;;;;;5092731;28;20198;-46
2022/03/31 03:45:07;;;;;;;8.43;4.65;;;2.60;76.50;;;;;;5092597;28;20198;-45
2022/03/31 03:47:33;;;;;;;8.13;4.75;;;2.60;76.50;;;;;;5091862;28;20509;-46
2022/03/31 03:50:00;;;;;;;6.10;4.22;;;2.60;76.50;;;;;;5091295;28;20215;-46
2022/03/31 03:52:27;;;;;;;7.60;4.35;;;2.50;76.40;;;;;;5091662;28;20203;-47
2022/03/31 03:54:55;;;;;;;7.97;4.72;;;2.50;76.50;;;;;;5091778;28;20248;-48
2022/03/31 03:57:23;;;;;;;7.60;4.78;;;2.50;76.50;;;;;;5091711;28;20222;-46
2022/03/31 03:59:49;;;;;;;6.63;4.95;;;2.50;76.60;;;;;;5091241;28;20523;-46
2022/03/31 04:02:16;;;;;;;6.30;3.85;;;2.50;76.60;;;;;;5091754;28;20203;-45
2022/03/31 04:04:43;;;;;;;8.13;4.03;;;2.40;76.50;;;;;;5091774;28;20206;-46
2022/03/31 04:07:09;;;;;;;5.63;4.63;;;2.40;76.50;;;;;;5091693;28;20300;-46
2022/03/31 04:09:36;;;;;;;8.10;4.03;;;2.40;76.70;;;;;;5091061;28;20229;-47
2022/03/31 04:12:05;;;;;;;8.30;4.65;;;2.40;76.70;;;;;;5091664;28;20201;-46
2022/03/31 04:14:31;;;;;;;6.10;4.30;;;2.40;76.80;;;;;;5091414;28;20194;-48
2022/03/31 04:16:58;;;;;;;15.52;4.53;;;2.30;76.70;;;;;;5091103;28;20218;-46
2022/03/31 04:19:24;;;;;;;5.43;3.65;;;2.20;76.60;;;;;;5072865;28;20560;-46
2022/03/31 04:21:51;;;;;;;9.13;4.57;;;2.30;76.80;;;;;;5091738;28;20221;-47
2022/03/31 04:24:18;;;;;;;5.57;3.65;;;2.20;76.70;;;;;;5091504;28;20288;-48
2022/03/31 04:26:44;;;;;;;7.20;3.97;;;2.30;76.70;;;;;;5091402;28;20604;-46
2022/03/31 04:29:16;;;;;;;6.65;3.15;;;2.20;76.70;;;;;;5090776;28;20544;-47
2022/03/31 04:31:43;;;;;;;4.75;3.72;;;2.20;76.70;;;;;;5091415;28;20218;-46
2022/03/31 04:34:11;;;;;;;6.45;3.75;;;2.20;76.80;;;;;;5091479;28;20203;-45
2022/03/31 04:36:37;;;;;;;4.85;3.35;;;2.20;77.00;;;;;;5091297;28;20210;-46
2022/03/31 04:39:04;;;;;;;8.13;4.72;;;2.20;77.00;;;;;;5090733;28;20198;-47
2022/03/31 04:41:31;;;;;;;9.23;4.00;;;2.10;76.90;;;;;;5073051;28;20236;-47
2022/03/31 04:43:58;;;;;;;6.93;3.63;;;2.10;77.00;;;;;;5091509;28;20206;-47
2022/03/31 04:46:26;;;;;;;7.03;3.15;;;2.10;77.20;;;;;;5092383;28;20570;-46
2022/03/31 04:48:52;;;;;;;6.57;4.05;;;2.10;77.30;;;;;;5091405;28;20590;-47
2022/03/31 04:51:19;;;;;;;5.43;3.80;;;2.10;77.40;;;;;;5090850;28;20206;-46
2022/03/31 04:53:46;;;;;;;9.48;3.60;;;2.00;77.40;;;;;;5072812;28;20295;-46
2022/03/31 04:56:14;;;;;;;3.97;2.97;;;2.00;77.40;;;;;;5091028;28;20289;-46
2022/03/31 04:58:40;;;;;;;6.82;4.03;;;2.00;77.50;;;;;;5091202;28;20554;-46
2022/03/31 05:01:07;;;;;;;5.32;3.38;;;2.00;77.70;;;;;;5093864;28;20218;-46
2022/03/31 05:03:35;;;;;;;5.90;3.60;;;2.00;77.70;;;;;;5094348;28;20297;-47
2022/03/31 05:06:01;;;;;;;7.30;3.63;;;2.00;77.60;;;;;;5093914;28;20186;-47
2022/03/31 05:08:28;;;;;;;6.53;3.20;;;2.00;77.60;;;;;;5093559;28;20194;-47
2022/03/31 05:10:54;;;;;;;3.47;3.00;;;2.00;77.90;;;;;;5093804;28;20207;-46
2022/03/31 05:13:21;;;;;;;4.55;3.65;;;1.70;77.60;;;;;;5091451;28;20202;-47
2022/03/31 05:15:48;;;;;;;9.93;3.80;;;2.00;78.80;;;;;;5091452;28;20251;-47
2022/03/31 05:18:14;;;;;;;6.05;3.50;;;2.00;78.00;;;;;;5090959;28;20225;-47
2022/03/31 05:20:44;;;;;;;8.48;3.30;;;2.00;77.90;;;;;;5111174;22;20245;-50
2022/03/31 05:23:10;;;;;;;20.27;4.00;;;2.00;78.00;;;;;;5091442;28;20191;-51
2022/03/31 05:25:37;;;;;;;6.53;3.40;;;1.90;78.10;;;;;;5091651;28;20203;-49
2022/03/31 05:28:05;;;;;;;8.63;4.00;;;1.90;78.30;;;;;;5091443;28;20271;-52
2022/03/31 05:30:32;;;;;;;7.85;3.90;;;1.90;78.30;;;;;;5091161;28;20716;-51
2022/03/31 05:33:00;;;;;;;5.63;4.20;;;1.90;78.40;;;;;;5091238;28;20271;-52
2022/03/31 05:35:27;;;;;;;5.00;3.40;;;1.90;78.70;;;;;;5090975;28;20220;-52
2022/03/31 05:37:56;;;;;;;6.10;4.30;;;1.90;78.70;;;;;;5091156;28;20598;-52
2022/03/31 05:40:23;;;;;;;5.30;3.45;;;1.90;78.60;;;;;;5090920;28;20579;-51
2022/03/31 05:42:50;;;;;;;8.98;4.22;;;1.90;78.80;;;;;;5090712;28;20202;-51
2022/03/31 05:45:17;;;;;;;8.40;3.40;;;1.90;78.60;;;;;;5090799;28;20202;-51
2022/03/31 05:47:45;;;;;;;5.78;3.80;;;1.80;78.60;;;;;;5091200;28;20655;-52
2022/03/31 05:50:13;;;;;;;5.97;3.63;;;2.00;78.60;;;;;;5091921;28;20218;-52
2022/03/31 05:52:42;;;;;;;6.20;3.85;;;2.10;78.30;;;;;;5094408;28;20226;-51
2022/03/31 05:55:12;;;;;;;4.95;3.80;;;2.10;78.20;;;;;;5094683;28;20556;-52
2022/03/31 05:57:39;;;;;;;8.35;3.70;;;2.10;78.30;;;;;;5094679;28;20583;-51
2022/03/31 06:00:09;;;;;;;8.88;4.05;;;2.10;78.20;;;;;;5094265;28;20222;-51
2022/03/31 06:02:38;;;;;;;7.45;3.65;;;2.10;78.20;;;;;;5094733;28;20723;-51
2022/03/31 06:05:06;;;;;;;6.22;3.80;;;2.10;78.10;;;;;;5094615;28;20210;-51
2022/03/31 06:07:33;;;;;;;6.43;4.05;;;2.10;78.10;;;;;;5094221;28;20244;-51
2022/03/31 06:10:00;;;;;;;6.57;3.38;;;2.10;78.10;;;;;;5094092;28;20563;-50
2022/03/31 06:12:28;;;;;;;7.40;4.05;;;2.10;78.10;;;;;;5094237;28;20198;-51
2022/03/31 06:14:54;;;;;;;4.80;3.20;;;2.10;78.00;;;;;;5094110;28;20190;-49
2022/03/31 06:17:21;;;;;;;7.10;4.07;;;2.10;78.10;;;;;;5094517;28;20380;-50
2022/03/31 06:19:48;;;;;;;6.10;3.95;;;2.10;78.20;;;;;;5094042;28;20201;-50
2022/03/31 06:22:15;;;;;;;8.00;3.08;;;2.20;78.00;;;;;;5094860;28;20635;-51
2022/03/31 06:24:42;;;;;;;6.65;4.15;;;2.20;77.90;;;;;;5076231;28;20761;-50
2022/03/31 06:27:10;;;;;;;9.18;3.70;;;2.20;77.70;;;;;;5094238;28;20273;-50
2022/03/31 06:29:40;;;;;;;4.40;3.30;;;2.30;77.60;;;;;;5076017;28;20297;-51
2022/03/31 06:32:08;;;;;;;5.40;3.80;;;2.30;77.40;;;;;;5093748;28;20199;-50
2022/03/31 06:34:36;;;;;;;7.00;3.92;;;2.40;77.20;;;;;;5094229;28;20195;-51
2022/03/31 06:37:03;;;;;;;11.00;4.10;;;3.90;78.60;;;;;;5093932;28;20226;-50
2022/03/31 06:39:29;;;;;;;9.77;4.30;;;2.40;76.90;;;;;;5093741;28;20256;-50
2022/03/31 06:41:57;;;;;;;4.28;3.55;;;2.50;76.80;;;;;;5093570;28;20706;-51
2022/03/31 06:44:23;;;;;;;8.07;3.85;;;2.30;76.90;;;;;;5093605;28;20191;-50
2022/03/31 06:46:52;;;;;;;6.28;4.55;;;2.60;76.40;;;;;;5093982;28;20229;-50
2022/03/31 06:49:20;;;;;;;6.20;3.75;;;2.60;76.20;;;;;;5093447;28;20277;-49
2022/03/31 06:51:47;;;;;;;12.00;4.72;;;2.70;76.20;;;;;;5093530;28;20768;-50
2022/03/31 06:54:14;;;;;;;4.30;3.60;;;2.70;75.70;;;;;;5093526;28;20260;-50
2022/03/31 06:56:40;;;;;;;8.10;4.43;;;2.70;75.70;;;;;;5093316;28;20513;-50
2022/03/31 06:59:07;;;;;;;6.10;3.90;;;2.60;75.70;;;;;;5093098;28;20199;-50
2022/03/31 07:01:34;;;;;;;6.55;3.85;;;2.70;75.70;;;;;;5091977;28;20215;-50
2022/03/31 07:04:02;;;;;;;6.97;4.15;;;2.80;75.60;;;;;;5093187;28;20199;-52
2022/03/31 07:06:28;;;;;;;5.85;4.28;;;2.70;75.10;;;;;;5093247;28;20290;-51
2022/03/31 07:08:55;;;;;;;7.45;4.70;;;2.90;75.10;;;;;;5093403;28;20201;-50
2022/03/31 07:11:21;;;;;;;10.15;5.18;;;3.10;75.00;;;;;;5092943;28;20223;-50
2022/03/31 07:13:49;;;;;;;5.88;3.63;;;3.00;74.20;;;;;;5092883;28;20580;-50
2022/03/31 07:16:17;;;;;;;12.98;4.63;;;3.00;74.50;;;;;;5093166;28;20568;-50
2022/03/31 07:18:44;;;;;;;9.50;4.28;;;2.90;74.20;;;;;;5093044;28;20268;-50
2022/03/31 07:21:12;;;;;;;8.00;5.13;;;3.00;74.40;;;;;;5093088;28;20232;-50
2022/03/31 07:23:40;;;;;;;6.43;4.07;;;3.00;74.40;;;;;;5092950;28;20199;-50
2022/03/31 07:26:06;;;;;;;5.90;3.50;;;3.00;74.30;;;;;;5092928;28;20697;-51
2022/03/31 07:28:33;;;;;;;6.10;4.03;;;3.20;74.30;;;;;;5093167;28;20191;-51
2022/03/31 07:31:00;;;;;;;4.93;4.07;;;3.20;73.80;;;;;;5092592;28;20215;-50
2022/03/31 07:33:26;;;;;;;6.10;4.50;;;3.20;73.70;;;;;;5092804;28;20234;-50
2022/03/31 07:35:53;;;;;;;7.32;4.00;;;3.30;73.90;;;;;;5092736;28;20191;-49
2022/03/31 07:38:21;;;;;;;5.85;3.97;;;3.30;73.60;;;;;;5092260;28;20215;-51
2022/03/31 07:40:49;;;;;;;10.07;4.22;;;3.20;73.40;;;;;;5091776;28;20214;-50
2022/03/31 07:43:15;;;;;;;4.93;3.80;;;3.40;73.50;;;;;;5092569;28;20277;-50
2022/03/31 07:45:42;;;;;;;6.18;3.95;;;3.50;73.60;;;;;;5092655;28;20253;-50
2022/03/31 07:48:13;;;;;;;5.80;4.20;;;3.50;73.10;;;;;;5092466;28;20192;-49
2022/03/31 07:50:40;;;;;;;9.90;4.63;;;3.50;72.90;;;;;;5092418;28;20243;-51
2022/03/31 07:53:07;;;;;;;15.70;4.95;;;3.60;73.40;;;;;;5092379;28;20202;-51
2022/03/31 07:55:35;;;;;;;5.03;3.47;;;3.70;72.90;;;;;;5092468;28;20195;-51
2022/03/31 07:58:02;;;;;;;8.07;4.40;;;3.80;72.40;;;;;;5092335;28;20690;-51
2022/03/31 08:00:29;;;;;;;5.13;4.00;;;3.70;72.00;;;;;;5092072;28;20222;-52
2022/03/31 08:02:58;;;;;;;11.30;4.00;;;3.80;71.90;;;;;;5091971;28;20197;-51
2022/03/31 08:05:27;;;;;;;13.85;5.22;;;3.80;71.80;;;;;;5092347;28;20203;-51
2022/03/31 08:07:54;;;;;;;5.75;4.38;;;3.90;72.00;;;;;;5092096;28;20190;-51
2022/03/31 08:10:22;;;;;;;5.85;4.13;;;4.00;71.70;;;;;;5091737;28;20214;-51
2022/03/31 08:12:50;;;;;;;7.25;4.65;;;4.20;71.30;;;;;;5091538;28;20555;-51
2022/03/31 08:15:18;;;;;;;4.38;3.97;;;4.10;71.00;;;;;;5091766;28;20293;-50
2022/03/31 08:17:46;;;;;;;6.45;4.75;;;4.30;70.40;;;;;;5092414;28;20754;-51
2022/03/31 08:20:14;;;;;;;9.18;4.68;;;4.40;70.50;;;;;;5091786;28;20229;-50
2022/03/31 08:22:41;;;;;;;7.95;4.70;;;4.40;70.30;;;;;;5091766;28;20654;-50
2022/03/31 08:25:09;;;;;;;6.38;4.35;;;4.40;70.00;;;;;;5091524;28;20206;-51
2022/03/31 08:27:37;;;;;;;8.93;4.53;;;4.40;70.00;;;;;;5091713;28;20198;-49
2022/03/31 08:30:07;;;;;;;7.80;4.30;;;4.50;69.90;;;;;;5091677;28;20230;-50
2022/03/31 08:32:35;;;;;;;13.00;5.90;;;4.50;69.40;;;;;;5091786;28;20201;-50
2022/03/31 08:35:02;;;;;;;6.03;4.47;;;4.60;70.30;;;;;;5091715;28;20587;-49
2022/03/31 08:37:29;;;;;;;6.60;4.50;;;4.60;69.10;;;;;;5091557;28;20292;-49
2022/03/31 08:39:56;;;;;;;6.43;4.38;;;4.70;69.00;;;;;;5091320;28;20211;-50
2022/03/31 08:42:22;;;;;;;6.32;4.80;;;4.70;68.80;;;;;;5091413;28;20559;-51
2022/03/31 08:44:51;;;;;;;7.63;4.65;;;4.90;68.90;;;;;;5091945;28;20577;-50
2022/03/31 08:47:20;;;;;;;9.82;4.85;;;5.00;68.60;;;;;;5091494;28;20214;-51
2022/03/31 08:49:47;;;;;;;8.52;4.80;;;5.00;68.30;;;;;;5091023;28;20744;-51
2022/03/31 08:52:14;;;;;;;8.15;4.80;;;5.20;67.90;;;;;;5091241;28;20221;-51
2022/03/31 08:54:42;;;;;;;5.40;4.38;;;5.20;67.60;;;;;;5091322;28;20203;-50
2022/03/31 08:57:08;;;;;;;6.83;3.90;;;5.20;67.20;;;;;;5091542;28;20559;-51
2022/03/31 08:59:35;;;;;;;6.95;5.18;;;5.30;67.70;;;;;;5090704;28;20465;-51
2022/03/31 09:02:02;;;;;;;5.95;4.55;;;5.50;67.40;;;;;;5091203;28;20217;-50
2022/03/31 09:04:30;;;;;;;7.72;4.45;;;5.60;67.00;;;;;;5091045;28;20276;-51
2022/03/31 09:07:03;;;;;;;10.10;5.90;;;5.70;66.80;;;;;;5091353;28;20659;-51
2022/03/31 09:09:30;;;;;;;14.40;5.15;;;5.90;66.30;;;;;;5091097;28;20547;-50
2022/03/31 09:11:57;;;;;;;6.15;5.32;;;6.00;65.80;;;;;;5089770;28;20215;-52
2022/03/31 09:14:31;;;;;;;5.53;4.40;;;5.70;65.00;;;;;;5091042;28;20198;-52
2022/03/31 09:16:58;;;;;;;7.38;5.50;;;6.00;65.60;;;;;;5090994;28;20207;-50
2022/03/31 09:19:25;;;;;;;12.63;5.83;;;6.10;65.60;;;;;;5090541;28;20248;-50
2022/03/31 09:21:54;;;;;;;5.63;5.00;;;6.20;65.60;;;;;;5090769;28;20490;-51
2022/03/31 09:24:23;;;;;;;7.20;5.10;;;6.20;65.20;;;;;;5091097;28;20434;-50
2022/03/31 09:26:51;;;;;;;7.30;4.80;;;6.20;65.00;;;;;;5095242;28;20433;-50
2022/03/31 09:29:19;;;;;;;7.37;4.60;;;6.30;65.00;;;;;;5094529;28;20519;-51
2022/03/31 09:31:47;;;;;;;9.87;5.33;;;6.40;64.90;;;;;;5094818;28;20821;-50
2022/03/31 09:34:15;;;;;;;5.53;4.53;;;6.40;65.00;;;;;;5094901;28;20430;-51
2022/03/31 09:36:44;;;;;;;7.80;5.07;;;6.30;64.90;;;;;;5095006;28;20448;-51
2022/03/31 09:39:16;;;;;;;15.50;5.67;;;6.20;64.70;;;;;;5094670;28;20804;-51
2022/03/31 09:41:47;;;;;;;11.10;5.33;;;6.30;65.00;;;;;;5095081;28;20484;-50
2022/03/31 09:44:16;;;;;;;10.10;5.63;;;6.40;65.00;;;;;;5095007;28;21097;-51
2022/03/31 09:46:45;;;;;;;14.33;5.87;;;6.50;65.10;;;;;;5094277;28;20474;-50
2022/03/31 09:49:15;;;;;;;6.40;4.83;;;6.30;64.60;;;;;;5094289;28;20437;-50
2022/03/31 09:51:43;;;;;;;10.83;5.40;;;6.50;64.90;;;;;;5076358;28;20465;-50
2022/03/31 09:54:12;;;;;;;8.00;5.00;;;6.50;65.10;;;;;;5094328;28;20433;-50
2022/03/31 09:56:40;;;;;;;10.43;5.03;;;6.50;65.00;;;;;;5094300;28;20426;-50
2022/03/31 09:59:08;;;;;;;13.30;6.80;;;6.30;65.70;;;;;;5093925;28;20574;-51
2022/03/31 10:01:36;;;;;;;11.87;4.90;;;6.50;65.60;;;;;;5094848;28;20456;-50
2022/03/31 10:04:05;;;;;;;8.37;5.23;;;6.50;65.40;;;;;;5094605;28;20429;-51
2022/03/31 10:06:34;;;;;;;9.67;6.13;;;6.50;65.20;;;;;;5094534;28;20434;-51
2022/03/31 10:09:01;;;;;;;9.00;4.70;;;6.50;65.10;;;;;;5093549;28;20442;-51
2022/03/31 10:11:30;;;;;;;7.23;6.10;;;6.50;65.00;;;;;;5094105;28;20469;-51
2022/03/31 10:14:14;;;;;;;6.03;5.23;;;6.50;65.00;;;;;;5093942;28;20441;-51
2022/03/31 10:16:47;;;;;;;9.50;5.73;;;6.40;64.70;;;;;;5093868;28;20433;-52
2022/03/31 10:19:25;;;;;;;6.50;5.37;;;6.60;65.00;;;;;;5075562;28;20557;-51
2022/03/31 10:21:57;;;;;;;13.90;5.80;;;6.70;65.20;;;;;;5093497;28;20464;-51
2022/03/31 10:24:42;;;;;;;8.60;5.33;;;6.80;65.30;;;;;;5094145;28;20430;-51
2022/03/31 10:27:14;;;;;;;8.33;5.03;;;6.80;64.70;;;;;;5093837;28;20466;-51
2022/03/31 10:29:43;;;;;;;11.80;5.33;;;6.80;64.90;;;;;;5093514;28;20429;-51
2022/03/31 10:32:21;;;;;;;8.13;5.83;;;6.90;64.80;;;;;;5094018;28;20451;-51
2022/03/31 10:34:49;;;;;;;9.37;5.40;;;7.00;64.30;;;;;;5093525;28;20439;-51
2022/03/31 10:37:18;;;;;;;7.73;5.23;;;7.10;64.40;;;;;;5093282;28;20483;-51
2022/03/31 10:39:55;;;;;;;11.83;6.20;;;7.30;64.50;;;;;;5093183;28;20856;-51
2022/03/31 10:42:24;;;;;;;6.50;5.43;;;7.20;63.80;;;;;;5093542;28;20426;-50
2022/03/31 10:45:06;;;;;;;8.07;4.80;;;7.30;64.00;;;;;;5093408;28;20465;-50
2022/03/31 10:47:33;;;;;;;11.90;6.40;;;7.40;63.60;;;;;;5093224;28;20442;-51
2022/03/31 10:50:00;;;;;;;10.30;5.50;;;7.20;63.10;;;;;;5092718;28;20447;-50
2022/03/31 10:52:28;;;;;;;9.00;5.50;;;7.30;63.30;;;;;;5093267;28;20926;-51
2022/03/31 10:55:06;;;;;;;7.13;5.67;;;7.30;63.40;;;;;;5075133;28;20568;-51
2022/03/31 10:57:41;;;;;;;8.93;5.90;;;7.50;63.00;;;;;;5074881;28;20447;-50
2022/03/31 11:00:09;;;;;;;7.43;5.50;;;7.60;63.00;;;;;;5092775;28;20509;-53
2022/03/31 11:02:40;;;;;;;7.87;5.70;;;7.60;62.40;;;;;;5093101;28;20440;-51
2022/03/31 11:05:08;;;;;;;9.17;5.30;;;7.50;62.30;;;;;;5092851;28;20916;-50
2022/03/31 11:07:35;;;;;;;9.00;5.37;;;7.60;62.50;;;;;;5093231;28;20441;-51
2022/03/31 11:10:04;;;;;;;11.40;6.47;;;7.70;62.20;;;;;;5092632;28;20529;-50
2022/03/31 11:12:32;;;;;;;10.63;4.97;;;7.80;61.80;;;;;;5092676;28;20434;-50
2022/03/31 11:15:01;;;;;;;9.73;6.00;;;7.80;61.50;;;;;;5092483;28;20575;-50
2022/03/31 11:17:28;;;;;;;6.80;5.37;;;7.80;61.30;;;;;;5092906;28;20439;-50
2022/03/31 11:22:27;;;;;;;9.37;5.93;;;7.90;61.30;;;;;;5049250;28;20447;-49
2022/03/31 11:24:56;;;;;;;29.50;6.00;;;7.90;60.90;;;;;;5051016;28;20438;-49
2022/03/31 11:27:36;;;;;;;14.10;5.90;;;7.90;60.50;;;;;;5051310;28;20535;-50
2022/03/31 11:30:06;;;;;;;13.40;5.93;;;7.80;60.20;;;;;;5052039;28;20444;-50
2022/03/31 11:32:34;;;;;;;9.60;5.53;;;7.90;60.60;;;;;;5071570;28;20787;-51
2022/03/31 11:35:01;;;;;;;8.63;5.77;;;7.80;60.00;;;;;;5071229;28;20962;-49
2022/03/31 11:37:28;;;;;;;8.50;5.70;;;7.90;60.10;;;;;;5071137;28;20448;-48
2022/03/31 11:39:55;;;;;;;8.30;6.40;;;7.90;60.00;;;;;;5071169;28;20496;-48
2022/03/31 11:42:21;;;;;;;8.83;5.83;;;7.90;60.10;;;;;;5071122;28;20451;-48
2022/03/31 11:44:48;;;;;;;10.13;5.50;;;8.00;60.30;;;;;;5071984;28;21021;-49
2022/03/31 11:47:20;;;;;;;6.73;5.37;;;8.10;59.90;;;;;;5070723;28;20443;-49
2022/03/31 11:50:00;;;;;;;7.90;5.50;;;8.10;59.70;;;;;;5070760;28;20488;-48
2022/03/31 11:52:31;;;;;;;13.10;5.73;;;8.10;59.90;;;;;;5071076;28;20933;-48
2022/03/31 11:55:00;;;;;;;8.60;5.87;;;8.10;60.00;;;;;;5070954;28;20416;-49
2022/03/31 11:57:28;;;;;;;9.80;5.70;;;8.20;60.10;;;;;;5070729;28;20467;-48
2022/03/31 11:59:55;;;;;;;10.63;7.13;;;8.40;60.30;;;;;;5070334;28;20477;-49
2022/03/31 12:02:23;;;;;;;10.30;6.33;;;8.60;59.80;;;;;;5070402;28;20464;-49
2022/03/31 12:04:50;;;;;;;9.73;6.87;;;8.60;59.60;;;;;;5070702;28;20806;-50
2022/03/31 12:07:20;;;;;;;8.17;5.80;;;8.80;59.30;;;;;;5070557;28;20938;-49
2022/03/31 12:09:48;;;;;;;7.33;5.67;;;8.90;59.00;;;;;;5070396;28;20982;-49
2022/03/31 12:12:16;;;;;;;12.10;6.07;;;8.80;58.90;;;;;;5070436;28;20473;-47
2022/03/31 12:14:53;;;;;;;6.87;6.17;;;8.80;58.80;;;;;;5070351;28;20453;-49
2022/03/31 12:17:20;;;;;;;10.83;6.00;;;8.90;58.90;;;;;;5070792;28;20432;-50
2022/03/31 12:19:49;;;;;;;9.57;5.37;;;9.00;58.90;;;;;;5070147;28;21033;-47
2022/03/31 12:22:15;;;;;;;7.67;5.90;;;9.20;58.80;;;;;;5053428;28;20481;-50
2022/03/31 12:24:50;;;;;;;7.73;6.27;;;9.30;58.40;;;;;;5070552;28;20486;-50
2022/03/31 12:27:18;;;;;;;12.57;6.33;;;9.30;57.80;;;;;;5070739;28;20432;-49
2022/03/31 12:29:46;;;;;;;11.77;5.83;;;9.30;58.10;;;;;;5070672;28;20434;-52
2022/03/31 12:32:14;;;;;;;9.17;5.40;;;9.30;57.80;;;;;;5070612;28;20448;-50
2022/03/31 12:34:54;;;;;;;11.43;5.50;;;9.30;57.80;;;;;;5070726;28;20504;-50
2022/03/31 12:37:28;;;;;;;10.00;5.90;;;9.40;57.80;;;;;;5070675;28;20422;-49
2022/03/31 12:39:55;;;;;;;7.33;6.10;;;9.50;57.50;;;;;;5069852;28;20473;-50
2022/03/31 12:42:21;;;;;;;13.00;5.87;;;9.50;57.30;;;;;;5070035;28;20461;-50
2022/03/31 12:44:48;;;;;;;10.90;5.90;;;9.50;57.10;;;;;;5070366;28;20541;-50
2022/03/31 12:47:20;;;;;;;8.20;5.30;;;9.60;57.20;;;;;;5070592;28;20434;-48
2022/03/31 12:49:47;;;;;;;10.90;5.60;;;9.60;56.10;;;;;;5070055;28;20441;-48
2022/03/31 12:52:16;;;;;;;6.73;4.90;;;9.50;56.10;;;;;;5070268;28;21010;-50
2022/03/31 12:54:50;;;;;;;7.03;5.50;;;9.40;56.10;;;;;;5070274;28;20441;-48
2022/03/31 12:57:20;;;;;;;10.00;5.70;;;9.50;56.30;;;;;;5070318;28;20959;-50
2022/03/31 12:59:59;;;;;;;11.50;4.93;;;9.60;56.20;;;;;;5072355;28;20523;-49
2022/03/31 13:02:25;;;;;;;7.93;5.37;;;9.70;55.00;;;;;;5074415;28;20437;-50
2022/03/31 13:04:52;;;;;;;13.30;4.80;;;9.70;55.00;;;;;;5074527;28;20445;-50
2022/03/31 13:07:27;;;;;;;9.83;4.10;;;9.80;54.90;;;;;;5074454;28;20440;-49
2022/03/31 13:09:55;;;;;;;5.03;4.40;;;9.80;53.20;;;;;;5074330;28;20444;-49
2022/03/31 13:12:22;;;;;;;6.93;4.37;;;9.70;52.20;;;;;;5073689;28;21025;-51